Time;durP1;ratioP1;P1;durP2;ratioP2;P2;SDS_P1;SDS_P2;PMS_P1;PMS_P2;Temp;Humidity;BMP_temperature;BMP_pressure;BME280_temperature;BME280_humidity;BME280_pressure;Samples;Min_cycle;Max_cycle;Signal;HPM_P1;HPM_P2
2022/06/14 00:02:56;;;;;;;15.88;4.72;;;11.70;99.90;;;;;;4944743;28;20078;-61
2022/06/14 00:05:22;;;;;;;13.00;4.70;;;11.60;99.90;;;;;;4962236;28;20105;-61
2022/06/14 00:07:48;;;;;;;10.75;4.53;;;11.60;99.90;;;;;;4965274;28;20493;-61
2022/06/14 00:10:13;;;;;;;14.02;4.60;;;11.50;99.90;;;;;;4962949;28;20035;-60
2022/06/14 00:12:39;;;;;;;13.52;4.43;;;11.50;99.90;;;;;;4964928;28;20093;-60
2022/06/14 00:15:05;;;;;;;10.65;4.55;;;11.40;99.90;;;;;;4947028;28;20410;-61
2022/06/14 00:17:31;;;;;;;13.73;5.13;;;11.40;99.90;;;;;;4950805;28;20084;-61
2022/06/14 00:19:57;;;;;;;11.85;4.78;;;11.40;99.90;;;;;;4948467;28;20053;-59
2022/06/14 00:22:23;;;;;;;12.27;5.10;;;11.40;99.90;;;;;;4934046;28;20043;-60
2022/06/14 00:24:49;;;;;;;10.23;4.05;;;11.30;99.90;;;;;;4964155;28;20035;-58
2022/06/14 00:27:14;;;;;;;15.80;4.60;;;11.30;99.90;;;;;;4965406;28;20038;-61
2022/06/14 00:29:40;;;;;;;9.90;4.70;;;11.30;99.90;;;;;;4966728;28;20026;-60
2022/06/14 00:32:06;;;;;;;9.57;4.72;;;11.20;99.90;;;;;;4966014;28;20043;-60
2022/06/14 00:34:32;;;;;;;13.23;5.28;;;11.20;99.90;;;;;;4963455;28;20042;-60
2022/06/14 00:36:59;;;;;;;12.30;4.55;;;11.20;99.90;;;;;;4945978;28;20073;-60
2022/06/14 00:39:24;;;;;;;8.68;3.58;;;11.10;99.90;;;;;;4929710;28;20038;-60
2022/06/14 00:41:55;;;;;;;14.50;5.47;;;11.10;99.90;;;;;;4948655;28;20049;-61
2022/06/14 00:44:30;;;;;;;10.65;4.72;;;11.10;99.90;;;;;;4962446;28;20046;-60
2022/06/14 00:47:06;;;;;;;10.63;4.55;;;11.10;99.90;;;;;;4959683;28;20054;-58
2022/06/14 00:49:48;;;;;;;9.23;4.55;;;11.00;99.90;;;;;;4964364;28;20050;-61
2022/06/14 00:52:24;;;;;;;9.77;4.68;;;11.00;99.90;;;;;;4951738;28;20058;-61
2022/06/14 00:54:56;;;;;;;11.85;5.32;;;11.00;99.90;;;;;;4966856;28;20367;-60
2022/06/14 00:57:29;;;;;;;10.13;4.30;;;10.90;99.90;;;;;;4950282;28;20047;-61
2022/06/14 01:00:02;;;;;;;13.32;4.78;;;10.90;99.90;;;;;;4963978;28;20408;-60
2022/06/14 01:02:35;;;;;;;11.77;4.50;;;10.90;99.90;;;;;;4950685;28;20106;-62
2022/06/14 01:05:08;;;;;;;10.33;4.50;;;10.90;99.90;;;;;;4967794;28;20046;-60
2022/06/14 01:07:40;;;;;;;10.37;4.23;;;10.80;99.90;;;;;;4967156;28;20421;-62
2022/06/14 01:10:11;;;;;;;8.35;4.38;;;10.80;99.90;;;;;;4948479;28;20049;-60
2022/06/14 01:12:41;;;;;;;9.05;4.07;;;10.70;99.90;;;;;;4950138;28;20169;-59
2022/06/14 01:15:26;;;;;;;8.82;3.70;;;10.70;99.90;;;;;;4966577;28;20045;-59
2022/06/14 01:17:59;;;;;;;12.20;4.53;;;10.70;99.90;;;;;;4967399;28;20047;-62
2022/06/14 01:20:25;;;;;;;9.82;3.85;;;10.70;99.90;;;;;;4935357;28;20170;-61
2022/06/14 01:22:53;;;;;;;12.20;4.18;;;10.70;99.90;;;;;;4964308;28;20046;-61
2022/06/14 01:25:20;;;;;;;9.45;4.65;;;10.60;99.90;;;;;;4949800;28;20161;-62
2022/06/14 01:27:46;;;;;;;9.15;3.90;;;10.60;99.90;;;;;;4965240;28;20050;-61
2022/06/14 01:30:16;;;;;;;14.35;5.53;;;10.60;99.90;;;;;;4925470;28;20054;-61
2022/06/14 01:33:07;;;;;;;14.80;5.10;;;10.60;99.90;;;;;;4939924;28;20474;-62
2022/06/14 01:35:49;;;;;;;11.55;4.57;;;10.60;99.90;;;;;;4940133;28;20046;-62
2022/06/14 01:38:16;;;;;;;12.10;4.80;;;10.50;99.90;;;;;;4937677;28;20135;-62
2022/06/14 01:41:05;;;;;;;7.93;3.97;;;10.50;99.90;;;;;;4942406;28;20042;-63
2022/06/14 01:43:58;;;;;;;11.23;4.97;;;10.40;99.90;;;;;;4932466;28;20742;-61
2022/06/14 01:46:40;;;;;;;11.32;4.20;;;10.40;99.90;;;;;;4929095;28;20043;-63
2022/06/14 01:52:47;;;;;;;13.38;4.20;;;10.40;99.90;;;;;;4935523;28;20083;-63
2022/06/14 01:55:39;;;;;;;11.73;5.28;;;10.40;99.90;;;;;;4895595;28;20585;-63
2022/06/14 01:58:26;;;;;;;11.52;4.10;;;10.40;99.90;;;;;;4920411;28;20142;-61
2022/06/14 02:01:12;;;;;;;10.55;4.07;;;10.40;99.90;;;;;;4935009;28;20046;-62
2022/06/14 02:07:05;;;;;;;7.63;3.72;;;10.30;99.90;;;;;;4851001;29;20067;-60
2022/06/14 02:10:03;;;;;;;12.10;4.55;;;10.30;99.90;;;;;;4920857;28;20043;-62
2022/06/14 02:12:51;;;;;;;15.88;4.88;;;10.30;99.90;;;;;;4884173;28;20055;-64
2022/06/14 02:15:23;;;;;;;10.95;4.40;;;10.30;99.90;;;;;;4932737;28;20111;-60
2022/06/14 02:18:05;;;;;;;10.45;4.78;;;10.20;99.90;;;;;;4936700;28;20039;-63
2022/06/14 02:20:49;;;;;;;12.27;4.47;;;10.20;99.90;;;;;;4934036;28;20502;-60
2022/06/14 02:23:15;;;;;;;11.10;4.20;;;10.20;99.90;;;;;;4923607;28;20046;-61
2022/06/14 02:26:00;;;;;;;10.77;4.43;;;10.20;99.90;;;;;;4916370;28;20127;-61
2022/06/14 02:28:33;;;;;;;9.18;3.28;;;10.20;99.90;;;;;;4918352;28;20050;-61
2022/06/14 02:31:13;;;;;;;11.10;4.78;;;10.20;99.90;;;;;;4936117;28;20079;-63
2022/06/14 02:33:45;;;;;;;7.95;4.25;;;10.20;99.90;;;;;;4928983;28;20154;-61
2022/06/14 02:36:26;;;;;;;11.20;4.00;;;10.20;99.90;;;;;;4950575;28;20050;-63
2022/06/14 02:39:09;;;;;;;12.23;4.28;;;10.10;99.90;;;;;;4917757;28;20105;-60
2022/06/14 02:42:19;;;;;;;12.57;4.55;;;10.10;99.90;;;;;;4923257;28;20131;-60
2022/06/14 02:45:20;;;;;;;8.80;3.95;;;10.10;99.90;;;;;;4931139;28;20094;-64
2022/06/14 02:48:23;;;;;;;9.90;3.63;;;10.20;99.90;;;;;;4948127;28;20162;-62
2022/06/14 02:51:01;;;;;;;8.50;4.10;;;10.20;99.90;;;;;;4933882;28;20177;-64
2022/06/14 02:53:38;;;;;;;11.90;4.43;;;10.10;99.90;;;;;;4947041;28;20054;-63
2022/06/14 02:56:14;;;;;;;10.88;3.58;;;10.20;99.90;;;;;;4930341;28;20095;-60
2022/06/14 02:59:00;;;;;;;13.88;4.13;;;10.10;99.90;;;;;;4940030;28;20045;-62
2022/06/14 03:01:32;;;;;;;12.35;4.82;;;10.10;99.90;;;;;;4944252;28;20039;-64
2022/06/14 03:04:10;;;;;;;9.00;4.60;;;10.10;99.90;;;;;;4924569;28;20141;-61
2022/06/14 03:06:42;;;;;;;12.10;4.70;;;10.10;99.90;;;;;;4938508;28;20077;-61
2022/06/14 03:09:23;;;;;;;10.40;4.40;;;10.10;99.90;;;;;;4942055;28;20039;-58
2022/06/14 03:12:11;;;;;;;12.13;3.88;;;10.10;99.90;;;;;;4922825;28;20608;-59
2022/06/14 03:14:48;;;;;;;10.52;4.30;;;10.10;99.90;;;;;;4945210;28;20134;-60
2022/06/14 03:17:51;;;;;;;7.43;3.75;;;10.10;99.90;;;;;;4950590;28;20047;-61
2022/06/14 03:20:19;;;;;;;8.80;3.67;;;10.10;99.90;;;;;;4938688;28;20434;-60
2022/06/14 03:22:57;;;;;;;13.75;4.13;;;10.10;99.90;;;;;;4945927;28;20042;-60
2022/06/14 03:25:32;;;;;;;7.43;3.05;;;10.10;99.90;;;;;;4941213;28;20043;-63
2022/06/14 03:28:10;;;;;;;9.45;4.15;;;10.00;99.90;;;;;;4955569;28;20070;-63
2022/06/14 03:30:51;;;;;;;11.57;4.43;;;10.00;99.90;;;;;;4957083;28;20050;-64
2022/06/14 03:33:27;;;;;;;8.57;3.53;;;10.10;99.90;;;;;;4935982;28;20050;-62
2022/06/14 03:35:55;;;;;;;10.90;3.90;;;10.10;99.90;;;;;;4939804;28;20104;-64
2022/06/14 03:38:25;;;;;;;15.77;4.75;;;10.10;99.90;;;;;;4905367;28;20038;-61
2022/06/14 03:40:51;;;;;;;10.43;3.53;;;10.10;99.90;;;;;;4940232;28;20053;-62
2022/06/14 03:43:18;;;;;;;8.20;3.42;;;10.10;99.90;;;;;;4922075;28;20435;-62
2022/06/14 03:46:02;;;;;;;11.35;3.85;;;10.10;99.90;;;;;;4950354;28;20043;-63
2022/06/14 03:48:29;;;;;;;12.18;3.83;;;10.10;99.90;;;;;;4936269;28;20080;-63
2022/06/14 03:51:02;;;;;;;11.30;4.00;;;10.10;99.90;;;;;;4933107;28;20133;-61
2022/06/14 03:53:44;;;;;;;6.28;2.83;;;10.10;99.90;;;;;;4942882;28;20051;-60
2022/06/14 03:56:33;;;;;;;9.52;3.90;;;10.20;99.90;;;;;;4945335;28;20398;-60
2022/06/14 03:59:02;;;;;;;11.68;3.88;;;10.20;99.90;;;;;;4941501;28;20038;-62
2022/06/14 04:01:34;;;;;;;7.40;3.60;;;10.20;99.90;;;;;;4944801;28;20140;-59
2022/06/14 04:04:07;;;;;;;14.98;4.88;;;10.20;99.90;;;;;;4926001;28;20077;-63
2022/06/14 04:06:47;;;;;;;10.52;3.70;;;10.20;99.90;;;;;;4951631;28;20136;-61
2022/06/14 04:09:31;;;;;;;11.48;4.20;;;10.20;99.90;;;;;;4926475;28;20097;-62
2022/06/14 04:12:15;;;;;;;;;;;10.20;99.90;;;;;;4922167;28;20101;-63
2022/06/14 04:15:01;;;;;;;10.43;4.03;;;10.20;99.90;;;;;;4941158;28;20039;-60
2022/06/14 04:18:34;;;;;;;7.60;3.22;;;10.20;99.90;;;;;;4939456;28;20129;-59
2022/06/14 04:20:55;;;;;;;8.80;3.75;;;10.30;99.90;;;;;;4943211;28;20046;-63
2022/06/14 04:23:50;;;;;;;10.02;3.92;;;10.30;99.90;;;;;;4924863;28;20055;-62
2022/06/14 04:26:36;;;;;;;14.93;4.38;;;10.30;99.90;;;;;;4946307;28;20034;-59
2022/06/14 04:29:14;;;;;;;8.93;3.95;;;10.40;99.90;;;;;;4932938;28;20404;-62
2022/06/14 04:31:48;;;;;;;12.38;4.97;;;10.50;99.90;;;;;;4921193;28;20058;-63
2022/06/14 04:34:20;;;;;;;11.27;4.70;;;10.50;99.90;;;;;;4921092;28;20053;-62
2022/06/14 04:37:09;;;;;;;11.27;4.32;;;10.60;99.90;;;;;;4929235;28;20054;-63
2022/06/14 04:39:40;;;;;;;12.45;3.97;;;10.60;99.90;;;;;;4947291;28;20043;-63
2022/06/14 04:42:18;;;;;;;11.73;4.47;;;10.70;99.90;;;;;;4935018;28;20066;-64
2022/06/14 04:44:57;;;;;;;11.82;4.90;;;10.80;99.90;;;;;;4912522;28;20483;-63
2022/06/14 04:47:26;;;;;;;9.63;4.55;;;10.90;99.90;;;;;;4942325;28;20046;-61
2022/06/14 04:50:02;;;;;;;9.93;4.30;;;10.90;99.90;;;;;;4931232;28;20123;-64
2022/06/14 04:52:39;;;;;;;10.32;4.30;;;11.00;99.90;;;;;;4945132;28;20138;-62
2022/06/14 04:55:13;;;;;;;8.25;3.65;;;11.10;99.90;;;;;;4937302;28;20050;-61
2022/06/14 04:57:43;;;;;;;;;;;11.20;99.90;;;;;;4942829;28;20050;-64
2022/06/14 05:00:20;;;;;;;11.23;4.25;;;11.20;99.90;;;;;;4908843;28;19918;-62
2022/06/14 05:02:45;;;;;;;10.50;3.33;;;11.30;99.90;;;;;;4945245;28;20070;-63
2022/06/14 05:05:45;;;;;;;9.98;3.75;;;11.40;99.90;;;;;;4920746;28;20142;-61
2022/06/14 05:08:23;;;;;;;12.65;4.25;;;11.60;99.90;;;;;;4942632;28;20035;-64
2022/06/14 05:11:20;;;;;;;10.25;4.70;;;11.60;99.90;;;;;;4937115;28;20043;-63
2022/06/14 05:14:02;;;;;;;10.57;3.10;;;11.70;99.90;;;;;;4890763;28;20063;-62
2022/06/14 05:16:44;;;;;;;9.43;3.53;;;11.80;99.90;;;;;;4942776;23;20055;-55
2022/06/14 05:19:21;;;;;;;11.48;3.70;;;12.00;99.90;;;;;;4950524;28;20144;-56
2022/06/14 05:21:57;;;;;;;10.35;4.18;;;12.10;99.90;;;;;;4932661;28;20038;-59
2022/06/14 05:24:23;;;;;;;10.93;4.40;;;12.20;99.90;;;;;;4940081;28;20257;-57
2022/06/14 05:27:21;;;;;;;9.32;3.70;;;12.30;99.90;;;;;;4921301;28;20034;-54
2022/06/14 05:29:59;;;;;;;12.63;3.78;;;12.40;99.90;;;;;;4960873;28;20507;-52
2022/06/14 05:32:34;;;;;;;8.70;3.20;;;12.50;99.90;;;;;;4933522;28;20052;-55
2022/06/14 05:35:15;;;;;;;9.20;4.28;;;12.60;99.90;;;;;;4938303;28;20609;-53
2022/06/14 05:38:01;;;;;;;7.07;3.72;;;12.70;99.90;;;;;;4944581;28;20051;-59
2022/06/14 05:41:04;;;;;;;7.55;3.58;;;12.80;99.90;;;;;;4944006;28;20437;-52
2022/06/14 05:43:29;;;;;;;8.63;4.50;;;12.90;99.90;;;;;;4907531;28;20074;-56
2022/06/14 05:46:01;;;;;;;8.80;4.15;;;13.00;99.90;;;;;;4947547;28;20493;-51
2022/06/14 05:48:36;;;;;;;10.13;3.47;;;13.10;99.90;;;;;;4934431;28;20065;-56
2022/06/14 05:51:05;;;;;;;11.32;3.80;;;13.20;99.90;;;;;;4949033;28;20034;-58
2022/06/14 05:53:40;;;;;;;12.02;3.85;;;13.30;99.90;;;;;;4943573;28;20119;-53
2022/06/14 05:56:20;;;;;;;13.05;3.50;;;13.30;99.90;;;;;;4946881;28;20125;-60
2022/06/14 05:58:59;;;;;;;8.32;3.83;;;13.40;99.90;;;;;;4949049;28;20093;-54
2022/06/14 06:01:45;;;;;;;7.22;3.20;;;13.50;99.90;;;;;;4951164;28;20093;-55
2022/06/14 06:04:25;;;;;;;10.38;4.10;;;13.60;99.90;;;;;;4947865;28;20450;-55
2022/06/14 06:06:57;;;;;;;9.05;3.65;;;13.70;99.90;;;;;;4932834;28;20042;-57
2022/06/14 06:09:39;;;;;;;9.07;3.50;;;13.80;99.90;;;;;;4945335;28;20046;-58
2022/06/14 06:12:17;;;;;;;10.45;3.70;;;13.80;99.90;;;;;;4941294;28;20055;-59
2022/06/14 06:14:55;;;;;;;9.40;3.58;;;14.00;99.90;;;;;;4953432;28;20119;-59
2022/06/14 06:17:36;;;;;;;7.75;3.35;;;14.10;99.90;;;;;;4946164;28;20074;-57
2022/06/14 06:20:13;;;;;;;9.32;2.97;;;14.10;99.90;;;;;;4928505;28;20110;-54
2022/06/14 06:23:26;;;;;;;8.70;3.20;;;14.20;99.90;;;;;;4948265;28;20053;-57
2022/06/14 06:25:57;;;;;;;8.93;2.90;;;14.40;99.90;;;;;;4936420;28;20065;-57
2022/06/14 06:28:35;;;;;;;9.75;2.97;;;14.50;99.90;;;;;;4933528;28;20047;-58
2022/06/14 06:31:11;;;;;;;8.93;3.25;;;14.50;99.90;;;;;;4948320;28;20413;-59
2022/06/14 06:33:41;;;;;;;5.88;2.75;;;14.60;99.90;;;;;;4948658;28;20478;-55
2022/06/14 06:36:07;;;;;;;5.97;2.95;;;14.70;99.90;;;;;;4944171;28;20510;-55
2022/06/14 06:39:07;;;;;;;8.82;3.00;;;14.70;99.90;;;;;;4928549;28;20039;-59
2022/06/14 06:41:50;;;;;;;7.28;2.63;;;14.80;99.90;;;;;;4945376;28;20035;-57
2022/06/14 06:44:37;;;;;;;8.00;2.92;;;14.80;99.90;;;;;;4940736;28;20038;-56
2022/06/14 06:47:09;;;;;;;7.78;3.13;;;15.00;99.90;;;;;;4947761;28;20409;-58
2022/06/14 06:50:01;;;;;;;7.90;2.72;;;15.10;99.90;;;;;;4938971;28;20042;-57
2022/06/14 06:52:52;;;;;;;8.23;3.20;;;15.20;99.90;;;;;;4931689;28;20057;-58
2022/06/14 06:55:29;;;;;;;7.65;3.00;;;15.30;99.90;;;;;;4943444;28;20122;-57
2022/06/14 06:57:57;;;;;;;7.95;3.42;;;15.30;99.90;;;;;;4945152;28;20100;-58
2022/06/14 07:00:24;;;;;;;6.00;3.33;;;15.30;99.90;;;;;;4948322;28;20050;-56
2022/06/14 07:02:55;;;;;;;8.60;2.58;;;15.30;99.90;;;;;;4947318;28;20053;-58
2022/06/14 07:05:21;;;;;;;6.65;2.60;;;15.20;99.90;;;;;;4946073;28;20046;-58
2022/06/14 07:08:05;;;;;;;5.03;2.17;;;15.10;99.90;;;;;;4927719;28;20069;-58
2022/06/14 07:10:39;;;;;;;6.25;2.30;;;15.20;99.90;;;;;;4942762;28;20101;-58
2022/06/14 07:13:12;;;;;;;7.22;1.90;;;15.30;99.90;;;;;;4932896;28;20054;-58
2022/06/14 07:15:44;;;;;;;7.75;2.30;;;15.40;99.90;;;;;;4945849;28;20392;-57
2022/06/14 07:18:52;;;;;;;5.53;2.22;;;15.60;99.90;;;;;;4942026;28;20687;-57
2022/06/14 07:21:25;;;;;;;6.38;2.63;;;15.80;99.90;;;;;;4945933;28;20062;-58
2022/06/14 07:23:53;;;;;;;4.72;2.40;;;16.00;99.90;;;;;;4943993;28;20057;-58
2022/06/14 07:26:33;;;;;;;5.38;1.70;;;16.10;99.90;;;;;;4948151;28;20119;-58
2022/06/14 07:29:11;;;;;;;5.20;1.88;;;16.20;99.90;;;;;;4941831;28;20126;-58
2022/06/14 07:31:42;;;;;;;4.93;2.30;;;16.30;99.90;;;;;;4936567;28;20082;-58
2022/06/14 07:34:09;;;;;;;5.75;2.00;;;16.50;99.90;;;;;;4949638;28;20150;-58
2022/06/14 07:36:56;;;;;;;7.30;2.55;;;16.70;99.90;;;;;;4946088;28;20178;-59
2022/06/14 07:39:28;;;;;;;6.75;3.15;;;16.80;99.90;;;;;;4935643;28;20129;-59
2022/06/14 07:42:07;;;;;;;5.78;2.15;;;16.90;99.90;;;;;;4957582;28;20480;-58
2022/06/14 07:44:42;;;;;;;5.15;1.80;;;16.90;99.90;;;;;;4941884;28;20058;-57
2022/06/14 07:47:17;;;;;;;4.55;1.77;;;16.70;99.90;;;;;;4948242;28;20049;-58
2022/06/14 07:50:12;;;;;;;7.68;2.20;;;16.50;99.90;;;;;;4938534;28;20043;-58
2022/06/14 07:52:53;;;;;;;3.88;2.00;;;16.50;99.90;;;;;;4935314;28;20063;-58
2022/06/14 07:55:40;;;;;;;5.13;2.20;;;16.70;99.90;;;;;;4954322;28;20298;-57
2022/06/14 07:58:12;;;;;;;5.00;2.33;;;16.90;99.90;;;;;;4941656;28;20181;-58
2022/06/14 08:03:37;;;;;;;8.35;2.47;;;17.00;99.90;;;;;;4937823;28;20058;-61
2022/06/14 08:06:13;;;;;;;5.25;1.92;;;16.90;99.90;;;;;;4946553;28;20488;-58
2022/06/14 08:08:42;;;;;;;7.22;1.70;;;16.90;99.90;;;;;;4939581;28;20407;-58
2022/06/14 08:11:24;;;;;;;6.55;2.67;;;16.90;99.90;;;;;;4932721;28;20790;-57
2022/06/14 08:13:59;;;;;;;4.28;1.73;;;16.90;99.90;;;;;;4936313;28;20553;-60
2022/06/14 08:16:27;;;;;;;7.88;2.03;;;17.00;99.90;;;;;;4965092;28;20050;-58
2022/06/14 08:19:03;;;;;;;5.93;1.98;;;17.10;99.90;;;;;;4952309;28;20117;-58
2022/06/14 08:21:46;;;;;;;6.20;2.10;;;17.40;99.90;;;;;;4951090;28;20271;-62
2022/06/14 08:24:19;;;;;;;5.03;1.88;;;17.70;99.90;;;;;;4943735;28;20042;-58
2022/06/14 08:26:47;;;;;;;5.25;2.00;;;17.90;99.90;;;;;;4951682;28;20751;-58
2022/06/14 08:29:25;;;;;;;3.25;1.77;;;18.00;99.90;;;;;;4941709;28;20342;-58
2022/06/14 08:32:01;;;;;;;4.38;1.50;;;17.80;98.80;;;;;;4953178;28;20281;-58
2022/06/14 08:34:45;;;;;;;4.40;2.08;;;17.50;98.40;;;;;;4937317;28;20352;-58
2022/06/14 08:37:20;;;;;;;5.10;1.52;;;17.20;99.90;;;;;;4937361;28;20521;-61
2022/06/14 08:39:51;;;;;;;4.35;1.83;;;17.20;99.90;;;;;;4959199;28;20054;-59
2022/06/14 08:42:32;;;;;;;7.43;2.72;;;17.30;99.90;;;;;;4940027;28;20043;-58
2022/06/14 08:45:09;;;;;;;7.28;2.22;;;17.40;99.90;;;;;;4944879;28;20094;-58
2022/06/14 08:47:40;;;;;;;4.50;1.73;;;17.60;99.90;;;;;;4944238;28;20046;-61
2022/06/14 08:50:22;;;;;;;6.15;1.92;;;17.80;99.90;;;;;;4939915;28;20785;-58
2022/06/14 08:53:12;;;;;;;5.40;1.75;;;18.00;99.90;;;;;;4938305;28;20050;-58
2022/06/14 08:55:41;;;;;;;7.53;2.03;;;18.00;99.90;;;;;;4950217;28;20046;-58
2022/06/14 08:58:34;;;;;;;6.47;1.65;;;17.90;99.90;;;;;;4941466;28;20059;-59
2022/06/14 09:01:09;;;;;;;6.40;1.80;;;17.90;99.90;;;;;;4923168;28;20089;-62
2022/06/14 09:03:43;;;;;;;4.50;1.52;;;17.70;99.80;;;;;;4939066;28;20065;-59
2022/06/14 09:06:28;;;;;;;5.03;1.50;;;17.60;99.50;;;;;;4937511;28;20106;-59
2022/06/14 09:09:02;;;;;;;4.22;1.77;;;17.60;99.60;;;;;;4926527;28;20576;-62
2022/06/14 09:12:02;;;;;;;4.90;1.60;;;17.90;99.50;;;;;;4944993;28;20130;-59
2022/06/14 09:15:05;;;;;;;5.97;1.75;;;17.90;98.70;;;;;;4930950;28;20066;-62
2022/06/14 09:17:44;;;;;;;5.38;2.38;;;17.70;99.50;;;;;;4944324;28;20054;-59
2022/06/14 09:20:28;;;;;;;7.32;1.67;;;17.50;99.80;;;;;;4947055;28;20109;-62
2022/06/14 09:23:00;;;;;;;2.85;1.50;;;17.40;99.90;;;;;;4961281;28;20042;-59
2022/06/14 09:25:50;;;;;;;4.85;1.60;;;17.40;99.90;;;;;;4945018;28;20108;-59
2022/06/14 09:28:19;;;;;;;5.13;1.83;;;17.50;99.90;;;;;;4940228;28;22563;-58
2022/06/14 09:31:06;;;;;;;4.28;1.67;;;17.60;99.90;;;;;;4935634;28;20046;-59
2022/06/14 09:33:31;;;;;;;4.18;1.42;;;17.60;99.90;;;;;;4945081;28;20673;-60
2022/06/14 09:35:57;;;;;;;4.82;1.50;;;17.80;99.80;;;;;;4945653;28;20035;-61
2022/06/14 09:38:44;;;;;;;5.15;1.40;;;17.70;99.70;;;;;;4941013;28;20500;-56
2022/06/14 09:41:41;;;;;;;5.88;2.10;;;17.80;99.40;;;;;;4942637;28;21107;-59
2022/06/14 09:44:39;;;;;;;4.40;1.90;;;17.80;99.60;;;;;;4948077;28;20705;-58
2022/06/14 09:47:40;;;;;;;5.47;1.88;;;17.90;99.10;;;;;;4948863;28;20398;-61
2022/06/14 09:50:48;;;;;;;4.38;1.80;;;18.00;99.80;;;;;;4936505;28;20058;-58
2022/06/14 09:53:28;;;;;;;5.40;2.30;;;18.20;99.90;;;;;;4933159;28;20143;-58
2022/06/14 09:56:06;;;;;;;6.38;2.20;;;18.40;99.70;;;;;;4941604;28;20057;-59
2022/06/14 09:58:34;;;;;;;4.00;1.80;;;18.50;98.60;;;;;;4956892;28;20043;-60
2022/06/14 10:01:20;;;;;;;3.90;1.70;;;18.50;98.90;;;;;;4926181;28;20073;-59
2022/06/14 10:04:02;;;;;;;4.10;1.90;;;18.40;98.00;;;;;;4950061;28;20047;-58
2022/06/14 10:06:48;;;;;;;4.85;1.77;;;18.10;98.20;;;;;;4939739;28;20066;-58
2022/06/14 10:09:20;;;;;;;3.70;1.50;;;18.00;98.00;;;;;;4940210;28;20054;-59
2022/06/14 10:12:15;;;;;;;5.10;1.70;;;17.90;98.20;;;;;;4932097;28;20049;-60
2022/06/14 10:14:49;;;;;;;4.55;1.73;;;17.90;97.90;;;;;;4953776;28;20880;-60
2022/06/14 10:17:30;;;;;;;4.50;1.58;;;18.00;98.90;;;;;;4959421;28;20473;-59
2022/06/14 10:20:17;;;;;;;5.35;1.92;;;18.10;98.50;;;;;;4936314;28;22398;-60
2022/06/14 10:22:55;;;;;;;2.83;1.70;;;18.20;98.80;;;;;;4946746;28;20442;-60
2022/06/14 10:29:12;;;;;;;4.13;1.60;;;18.30;98.00;;;;;;4958188;28;20682;-60
2022/06/14 10:32:00;;;;;;;6.60;2.33;;;18.40;98.60;;;;;;4957494;28;20075;-58
2022/06/14 10:34:57;;;;;;;7.55;1.90;;;18.70;98.00;;;;;;4951181;28;20047;-61
2022/06/14 10:37:37;;;;;;;4.65;1.70;;;18.60;97.30;;;;;;4945878;28;20050;-58
2022/06/14 10:40:18;;;;;;;2.78;1.40;;;18.60;97.90;;;;;;4944678;28;20457;-62
2022/06/14 10:43:12;;;;;;;4.30;1.70;;;18.60;98.10;;;;;;4953014;28;20047;-59
2022/06/14 10:45:49;;;;;;;5.07;1.80;;;18.70;98.30;;;;;;4943066;28;20058;-61
2022/06/14 10:48:21;;;;;;;3.13;1.33;;;18.60;98.10;;;;;;4922723;28;20038;-58
2022/06/14 10:51:10;;;;;;;4.78;1.35;;;18.40;96.20;;;;;;4943274;28;20057;-58
2022/06/14 10:53:48;;;;;;;4.70;1.27;;;18.20;96.20;;;;;;4946996;28;21175;-61
2022/06/14 10:56:59;;;;;;;3.33;1.50;;;18.20;97.20;;;;;;4944542;28;20046;-58
2022/06/14 10:59:30;;;;;;;4.75;1.98;;;18.10;97.20;;;;;;4927697;28;20449;-58
2022/06/14 11:02:16;;;;;;;5.38;1.67;;;18.20;98.00;;;;;;4959061;28;20469;-59
2022/06/14 11:05:23;;;;;;;4.25;1.58;;;18.20;98.10;;;;;;4943832;28;20129;-59
2022/06/14 11:07:51;;;;;;;6.15;1.85;;;18.30;98.20;;;;;;4950082;28;20536;-59
2022/06/14 11:10:32;;;;;;;4.22;1.75;;;18.50;98.50;;;;;;4943214;28;20186;-58
2022/06/14 11:13:28;;;;;;;2.75;1.40;;;18.60;98.20;;;;;;4947416;28;20070;-59
2022/06/14 11:18:56;;;;;;;2.53;1.25;;;18.60;96.90;;;;;;5008525;28;20045;-86
2022/06/14 11:21:46;;;;;;;4.43;1.38;;;18.80;97.20;;;;;;5008959;28;20042;-86
2022/06/14 11:24:50;;;;;;;4.95;1.48;;;19.00;96.30;;;;;;5006822;28;20045;-87
2022/06/14 11:27:16;;;;;;;;;;;19.10;95.50;;;;;;4999679;28;20054;-87
2022/06/14 11:30:10;;;;;;;5.60;1.75;;;18.90;95.50;;;;;;4988396;28;19917;-87
2022/06/14 11:33:00;;;;;;;4.40;1.60;;;19.20;95.80;;;;;;4977681;28;20458;-88
2022/06/14 11:35:58;;;;;;;3.25;1.48;;;19.20;96.10;;;;;;5000489;28;20489;-88
2022/06/14 11:39:01;;;;;;;4.47;1.55;;;19.10;96.20;;;;;;4986790;28;20034;-88
2022/06/14 11:41:36;;;;;;;8.38;2.58;;;19.00;96.10;;;;;;4989194;28;20080;-85
2022/06/14 11:44:20;;;;;;;5.93;2.30;;;18.80;96.80;;;;;;4987350;28;20061;-88
2022/06/14 11:46:58;;;;;;;6.97;2.90;;;18.70;97.30;;;;;;4986466;28;20759;-88
2022/06/14 11:49:48;;;;;;;6.03;2.25;;;18.40;97.20;;;;;;4999198;28;20442;-87
2022/06/14 11:52:28;;;;;;;7.22;2.80;;;18.40;97.90;;;;;;4982461;28;20049;-87
2022/06/14 11:55:19;;;;;;;6.80;2.72;;;18.40;98.30;;;;;;4983044;28;20077;-89
2022/06/14 11:58:11;;;;;;;4.40;2.28;;;18.30;97.70;;;;;;5022349;28;20038;-92
2022/06/14 12:01:01;;;;;;;5.90;2.10;;;18.30;98.30;;;;;;5042105;28;20048;-91
2022/06/14 12:03:52;;;;;;;4.05;1.77;;;18.30;98.20;;;;;;5018592;28;20061;-92
2022/06/14 12:06:46;;;;;;;5.97;2.28;;;18.30;98.50;;;;;;5023053;28;20029;-91
2022/06/14 12:09:38;;;;;;;5.97;2.33;;;18.40;98.50;;;;;;5014350;28;20132;-91
2022/06/14 12:12:15;;;;;;;6.25;2.17;;;18.50;98.20;;;;;;5007240;28;20073;-89
2022/06/14 12:14:56;;;;;;;3.55;1.73;;;18.40;97.70;;;;;;5011894;28;20073;-89
2022/06/14 12:17:54;;;;;;;8.05;2.38;;;18.70;98.00;;;;;;5004570;28;20065;-90
2022/06/14 12:20:22;;;;;;;8.32;3.15;;;18.90;98.00;;;;;;4985480;28;20050;-89
2022/06/14 12:22:51;;;;;;;5.90;2.72;;;19.10;98.30;;;;;;5018366;28;20529;-89
2022/06/14 12:28:33;;;;;;;8.75;2.67;;;19.10;98.10;;;;;;4999682;28;20044;-88
2022/06/14 12:31:33;;;;;;;5.32;2.72;;;19.10;98.20;;;;;;5016089;28;20132;-88
2022/06/14 12:34:26;;;;;;;4.80;2.25;;;19.00;97.80;;;;;;5019992;28;20065;-88
2022/06/14 12:37:18;;;;;;;7.88;2.78;;;18.90;97.80;;;;;;4989343;28;20038;-88
2022/06/14 12:39:56;;;;;;;4.82;2.20;;;18.90;98.00;;;;;;4991849;28;20029;-88
2022/06/14 12:42:42;;;;;;;7.80;2.30;;;18.90;98.00;;;;;;5003057;28;20042;-88
2022/06/14 12:45:49;;;;;;;8.13;2.40;;;18.90;98.00;;;;;;5005221;28;20053;-88
2022/06/14 12:48:53;;;;;;;7.25;2.58;;;18.90;97.70;;;;;;4985495;28;20502;-88
2022/06/14 12:51:43;;;;;;;4.30;2.30;;;19.00;97.80;;;;;;4998275;28;20038;-89
2022/06/14 12:54:49;;;;;;;6.05;2.60;;;19.00;97.70;;;;;;5018547;28;21674;-88
2022/06/14 12:57:40;;;;;;;6.57;2.70;;;19.20;98.20;;;;;;4969079;28;20531;-89
2022/06/14 13:00:48;;;;;;;4.55;2.20;;;19.40;98.10;;;;;;5017479;28;20038;-89
2022/06/14 13:03:48;;;;;;;6.30;2.30;;;19.60;97.30;;;;;;4933896;28;20531;-89
2022/06/14 13:06:22;;;;;;;6.45;2.63;;;19.70;96.70;;;;;;4988602;28;20038;-88
2022/06/14 13:09:21;;;;;;;4.32;2.33;;;19.70;96.80;;;;;;5010179;28;20042;-88
2022/06/14 13:12:15;;;;;;;5.85;2.90;;;19.70;96.70;;;;;;5010095;28;20107;-89
2022/06/14 13:15:05;;;;;;;6.82;3.03;;;19.60;96.90;;;;;;4996875;28;20073;-88
2022/06/14 13:17:53;;;;;;;6.00;2.67;;;19.50;96.80;;;;;;5003361;28;20134;-87
2022/06/14 13:20:56;;;;;;;5.07;2.30;;;19.50;97.00;;;;;;4992940;28;20077;-89
2022/06/14 13:23:37;;;;;;;6.30;2.95;;;19.40;96.80;;;;;;4991180;28;20414;-88
2022/06/14 13:26:19;;;;;;;5.38;2.53;;;19.30;97.30;;;;;;4987776;28;20523;-88
2022/06/14 13:29:03;;;;;;;4.75;2.85;;;19.20;98.20;;;;;;5011125;28;20532;-88
2022/06/14 13:31:38;;;;;;;;;;;19.20;98.10;;;;;;4993255;28;20103;-88
2022/06/14 13:34:14;;;;;;;7.43;2.35;;;19.10;98.40;;;;;;4990924;28;20568;-87
2022/06/14 13:37:08;;;;;;;7.47;2.45;;;19.00;98.50;;;;;;4991464;28;20613;-89
2022/06/14 13:39:37;;;;;;;4.97;2.17;;;19.00;98.40;;;;;;4992527;28;20192;-89
2022/06/14 13:42:29;;;;;;;5.47;2.47;;;18.90;98.70;;;;;;4990957;28;20030;-88
2022/06/14 13:45:16;;;;;;;7.70;2.55;;;19.00;99.20;;;;;;4994840;28;20034;-88
2022/06/14 13:47:45;;;;;;;6.53;2.70;;;19.00;99.00;;;;;;4989426;28;20109;-88
2022/06/14 13:50:24;;;;;;;7.97;3.00;;;18.90;99.00;;;;;;4984174;28;20445;-87
2022/06/14 13:52:56;;;;;;;5.97;2.70;;;18.90;98.30;;;;;;5000245;28;20057;-87
2022/06/14 13:55:38;;;;;;;5.45;3.10;;;18.80;98.60;;;;;;5016172;28;20443;-85
2022/06/14 13:59:20;;;;;;;6.78;3.00;;;18.80;98.70;;;;;;4993624;28;20050;-88
2022/06/14 14:01:56;;;;;;;6.60;2.90;;;19.00;99.00;;;;;;4987744;28;20211;-85
2022/06/14 14:04:53;;;;;;;7.07;2.35;;;18.80;98.60;;;;;;5013121;28;20046;-90
2022/06/14 14:07:34;;;;;;;5.88;2.53;;;18.80;98.90;;;;;;5014494;28;20073;-88
2022/06/14 14:10:29;;;;;;;5.97;2.90;;;18.90;99.00;;;;;;5029443;28;20025;-89
2022/06/14 14:13:25;;;;;;;6.88;2.53;;;18.90;98.80;;;;;;5028794;28;20067;-88
2022/06/14 14:16:02;;;;;;;6.15;3.20;;;18.90;98.80;;;;;;5026424;28;20098;-89